• Join FlightAware (Why Join?)
  • Login
  • US Flag 
06:24AM EDT


 

Airport Tracker/Info


-or-


 

Live Flight TrackerFlight Track Log ✈ SWA1130 ✈ 09-May-2013 ✈ KMHT - KBWI

Flight Track Log - Related Links

Times and Time Zones

All times are in EDT time to prevent confusion due to time zone crossing. See the SWA1130 flight status page for this flight to view local times or setup timezone preferences in your user account.

Time Position Orientation Groundspeed Altitude Reporting Facility
EDT Latitude Longitude Course Direction KTS MPH feet Rate Location/Type
06:08AM 42.9500 -71.4167 13° North 155 178 1,100  Level KA90
06:09AM 42.9708 -71.4100 13° North 217 250 1,700 2,040 Climbing Boston Center
06:10AM 43.0164 -71.3753 29° Northeast 232 267 4,200 2,340 Climbing Boston Center
06:11AM 43.0303 -71.2842 78° East 218 251 6,400 3,060 Climbing Boston Center
06:12AM 43.0519 -71.1672 76° East 265 305 10,400 3,120 Climbing Boston Center
06:13AM 43.0114 -71.0856 124° Southeast 282 325 12,700 2,820 Climbing Boston Center
06:14AM 42.9208 -71.0197 152° Southeast 298 343 16,100 3,000 Climbing Boston Center
06:15AM 42.8431 -70.9706 155° Southeast 340 391 18,700 2,460 Climbing Boston Center
06:16AM 42.7478 -71.0008 193° South 332 382 21,100 2,580 Climbing Boston Center
06:17AM 42.6461 -71.0486 199° South 361 415 23,900 2,580 Climbing Boston Center
06:18AM 42.5425 -71.1017 201° Southwest 382 440 26,300 2,220 Climbing Boston Center
06:19AM 42.4411 -71.1572 202° Southwest 393 452 28,400 2,160 Climbing Boston Center
06:20AM 42.3819 -71.2850 238° Southwest 379 436 30,700 2,100 Climbing Boston Center
06:21AM 42.3397 -71.4289 248° West 390 449 32,700 1,620 Climbing Boston Center
06:22AM 42.2908 -71.5700 245° Southwest 403 464 34,000 600 Climbing Boston Center
06:23AM 42.2458 -71.7164 247° West 414 476 34,000  Level Boston Center
06:24AM 42.1967 -71.8683 246° West 414 476 34,000  Level Boston Center
06:25AM 42.1558 -72.0089 249° West 414 476 34,000  Level Boston Center
06:26AM 42.1125 -72.1492 247° West 414 476 34,000  Level Boston Center
06:27AM 42.0669 -72.2892 246° West 414 476 34,000  Level Boston Center
06:28AM 42.0253 -72.4261 248° West 414 476 34,000  Level Boston Center
06:29AM 42.0086 -72.5797 262° West 414 476 34,000  Level Boston Center
06:30AM 41.9811 -72.7194 255° West 409 471 34,000  Level Boston Center
06:31AM 41.9225 -72.8447 238° Southwest 390 449 34,000  Level Boston Center
06:32AM 41.8594 -72.9669 235° Southwest 401 461 34,000  Level Boston Center
06:33AM 41.7942 -73.0972 236° Southwest 415 478 34,000  Level Boston Center
06:34AM 41.7286 -73.2217 235° Southwest 421 484 34,000  Level Boston Center
06:35AM 41.6611 -73.3458 234° Southwest 416 479 34,000  Level Boston Center
06:36AM 41.5933 -73.4700 234° Southwest 416 479 34,000  Level Boston Center
06:38AM 41.4211 -73.6928 224° Southwest 413 475 34,000  Level New York Center
06:39AM 41.3353 -73.7911 221° Southwest 413 475 34,000  Level New York Center
06:40AM 41.2494 -73.8894 221° Southwest 413 475 34,000  Level New York Center
06:41AM 41.1614 -73.9900 221° Southwest 418 481 34,000  Level New York Center
06:42AM 41.0756 -74.0878 221° Southwest 418 481 34,000 -780 Level New York Center
06:43AM 40.9767 -74.1900 218° Southwest 418 481 32,500 -1,800 Descending New York Center
06:44AM 40.8928 -74.2847 220° Southwest 411 473 30,400 -2,100 Descending New York Center
06:45AM 40.8108 -74.3764 220° Southwest 404 465 28,400 -1,200 Descending New York Center
06:46AM 40.7431 -74.4742 228° Southwest 384 442 28,000 -240 Descending New York Center
06:47AM 40.6814 -74.5803 233° Southwest 379 436 28,000 -540 Level New York Center
06:48AM 40.6175 -74.6861 232° Southwest 374 430 27,000 -960 Descending New York Center
06:49AM 40.5517 -74.7861 229° Southwest 374 430 26,100 -1,020 Descending New York Center
06:50AM 40.4836 -74.8831 227° Southwest 369 425 25,000 -2,040 Descending New York Center
06:51AM 40.4336 -75.0028 241° Southwest 364 419 22,100 -3,000 Descending New York Center
06:52AM 40.3750 -75.1219 237° Southwest 378 435 19,200 -2,100 Descending New York Center
06:53AM 40.2947 -75.2067 219° Southwest 384 442 18,000 -600 Descending New York Center
06:54AM 40.2278 -75.2731 217° Southwest 350 403 18,000  Level New York Center
06:55AM 40.1558 -75.3525 220° Southwest 340 391 18,000  Level New York Center
06:56AM 40.0836 -75.4400 223° Southwest 327 376 18,000  Level New York Center
06:57AM 40.0239 -75.5256 228° Southwest 327 376 18,000 -420 Level New York Center
06:58AM 39.9619 -75.6133 227° Southwest 327 376 17,200 -960 Descending New York Center
06:59AM 39.9042 -75.6986 229° Southwest 330 380 16,100 -1,020 Descending New York Center
07:00AM 39.8544 -75.7925 235° Southwest 330 380 15,200 -1,020 Descending New York Center
07:02AM 39.7638 -75.9419 247° West  Level FlightAware Approximate
07:02AM 39.7333 -76.0167 247° West 304 350 12,800  Level Potomac TRACON
07:04AM 39.6722 -76.1334 229° Southwest  Level FlightAware Approximate
07:05AM 39.5833 -76.2500 270° West 292 336 9,700  Level Potomac TRACON
07:06AM 39.5167 -76.3167 218° Southwest 284 327 8,300 -1,380 Descending Potomac TRACON
07:07AM 39.4667 -76.3667 218° Southwest 279 321 7,100 -1,440 Descending Potomac TRACON
07:08AM 39.4000 -76.4333 218° Southwest 275 316 5,600 -1,200 Descending Potomac TRACON
07:09AM 39.3333 -76.4167 169° South 278 320 4,900 -900 Descending Potomac TRACON
07:10AM 39.2500 -76.4167 180° South 274 315 4,000 -540 Descending Potomac TRACON
07:11AM 39.1667 -76.6667 270° West  Level FlightAware Approximate
07:11AM 39.2000 -76.4167 180° South 260 299 4,000  Level Potomac TRACON
07:12AM 39.1333 -76.4500 201° Southwest 235 270 4,000  Level Potomac TRACON
07:13AM 39.0667 -76.4667 191° South 213 245 4,000 -360 Level Potomac TRACON
07:14AM 39.0333 -76.4833 201° Southwest 186 214 3,400 -720 Descending Potomac TRACON
07:15AM 39.0333 -76.5333 270° West 174 200 2,700 -720 Descending Potomac TRACON
07:16AM 39.0667 -76.5667 322° Northwest 173 199 2,000 -660 Descending Potomac TRACON
07:17AM 39.1000 -76.6000 322° Northwest 164 189 1,600 -660 Descending Potomac TRACON
07:18AM 39.1333 -76.6333 322° Northwest 138 159 800 -840 Descending Potomac TRACON
07:20AM 39.1667 -76.6667 270° West  Level FlightAware Approximate
07:27AM 39.1754 -76.6683 270° West  Level Estimated
07:28AM 39.1754 -76.6683 270° West  Level Estimated
07:29AM 39.1754 -76.6683 270° West  Level Estimated
07:30AM 39.1754 -76.6683 270° West  Level Estimated
07:31AM 39.1754 -76.6683 270° West  Level Estimated